THY1813 LTFM-LFMN
Flight info
| Callsign | THY1813 |
|---|---|
| Flight time | 2h 50m |
| Altitude | 40000 |
| Route | VADEN N618 BAKLO/N0485F430 N618 GOL DCT DOLAP DCT VELIT DCT KEMIX DCT XAMIT/N0484F410 DCT NIKMA DCT KARDU DCT TOBGA/N0462F300 DCT DOBIM DCT AKUTI R16 KERIT |
| Aircraft | A359/H-SDE2E3GHIJ3J4J5LM1ORWXY/LB1D1 |
Departure
| Time | 2026-05-07 05:39 |
|---|---|
| Airport | İstanbul Airport (LTFM) |
Arrival
| Time | 2026-05-07 08:29 |
|---|---|
| Airport | Nice-Côte d'Azur Airport (LFMN) |
| Time | Latitude | Longitude | Altitude | Speed | Heading |
|---|---|---|---|---|---|
| 2026-05-07 05:27 | 41.26715 | 28.74744 | 340 ft | 0 kts | 89° |
| 2026-05-07 05:28 | 41.26715 | 28.74741 | 340 ft | 1 kts | 89° |
| 2026-05-07 05:28 | 41.26714 | 28.74718 | 335 ft | 3 kts | 89° |
| 2026-05-07 05:28 | 41.26714 | 28.74691 | 335 ft | 3 kts | 89° |
| 2026-05-07 05:28 | 41.26713 | 28.74666 | 335 ft | 3 kts | 92° |
| 2026-05-07 05:29 | 41.26717 | 28.74641 | 335 ft | 3 kts | 123° |
| 2026-05-07 05:29 | 41.26730 | 28.74623 | 335 ft | 3 kts | 152° |
| 2026-05-07 05:29 | 41.26748 | 28.74614 | 335 ft | 3 kts | 173° |
| 2026-05-07 05:29 | 41.26760 | 28.74613 | 335 ft | 2 kts | 179° |
| 2026-05-07 05:30 | 41.26774 | 28.74612 | 335 ft | 1 kts | 179° |
| 2026-05-07 05:30 | 41.26776 | 28.74612 | 335 ft | 0 kts | 179° |
| 2026-05-07 05:32 | 41.26775 | 28.74612 | 335 ft | 1 kts | 179° |
| 2026-05-07 05:32 | 41.26732 | 28.74614 | 335 ft | 12 kts | 178° |
| 2026-05-07 05:33 | 41.26642 | 28.74617 | 335 ft | 12 kts | 180° |
| 2026-05-07 05:33 | 41.26612 | 28.74617 | 335 ft | 0 kts | 179° |
| 2026-05-07 05:34 | 41.26574 | 28.74614 | 337 ft | 2 kts | 198° |
| 2026-05-07 05:34 | 41.26571 | 28.74608 | 337 ft | 1 kts | 222° |
| 2026-05-07 05:34 | 41.26566 | 28.74576 | 336 ft | 6 kts | 268° |
| 2026-05-07 05:34 | 41.26578 | 28.74487 | 336 ft | 11 kts | 315° |
| 2026-05-07 05:35 | 41.26671 | 28.74469 | 335 ft | 18 kts | 358° |
| 2026-05-07 05:35 | 41.26828 | 28.74465 | 336 ft | 25 kts | 359° |
| 2026-05-07 05:35 | 41.26959 | 28.74486 | 336 ft | 14 kts | 44° |
| 2026-05-07 05:35 | 41.26973 | 28.74616 | 335 ft | 16 kts | 88° |
| 2026-05-07 05:36 | 41.26976 | 28.74797 | 339 ft | 23 kts | 89° |
| 2026-05-07 05:36 | 41.26980 | 28.75051 | 337 ft | 30 kts | 89° |
| 2026-05-07 05:36 | 41.26983 | 28.75314 | 337 ft | 20 kts | 92° |
| 2026-05-07 05:36 | 41.26889 | 28.75376 | 340 ft | 18 kts | 179° |
| 2026-05-07 05:37 | 41.26733 | 28.75378 | 335 ft | 27 kts | 179° |
| 2026-05-07 05:37 | 41.26522 | 28.75383 | 338 ft | 32 kts | 179° |
| 2026-05-07 05:37 | 41.26344 | 28.75404 | 336 ft | 16 kts | 139° |
| 2026-05-07 05:37 | 41.26337 | 28.75543 | 340 ft | 17 kts | 89° |
| 2026-05-07 05:38 | 41.26362 | 28.75664 | 335 ft | 5 kts | 9° |
| 2026-05-07 05:38 | 41.26436 | 28.75663 | 338 ft | 25 kts | 359° |
| 2026-05-07 05:38 | 41.26884 | 28.75652 | 337 ft | 101 kts | 359° |
| 2026-05-07 05:38 | 41.27813 | 28.75636 | 358 ft | 163 kts | 359° |
| 2026-05-07 05:39 | 41.28939 | 28.75618 | 1099 ft | 159 kts | 359° |
| 2026-05-07 05:39 | 41.30037 | 28.75835 | 1697 ft | 171 kts | 26° |
| 2026-05-07 05:39 | 41.31129 | 28.76733 | 1994 ft | 200 kts | 34° |
| 2026-05-07 05:39 | 41.32394 | 28.77848 | 2257 ft | 236 kts | 32° |
| 2026-05-07 05:40 | 41.33862 | 28.79054 | 2796 ft | 256 kts | 30° |
| 2026-05-07 05:40 | 41.35417 | 28.80278 | 3653 ft | 262 kts | 28° |
| 2026-05-07 05:40 | 41.37006 | 28.81494 | 4573 ft | 264 kts | 26° |
| 2026-05-07 05:40 | 41.38720 | 28.82313 | 5497 ft | 262 kts | 6° |
| 2026-05-07 05:41 | 41.40530 | 28.82330 | 6477 ft | 260 kts | 353° |
| 2026-05-07 05:41 | 41.42338 | 28.82108 | 7431 ft | 262 kts | 352° |
| 2026-05-07 05:41 | 41.44169 | 28.81862 | 8408 ft | 265 kts | 352° |
| 2026-05-07 05:41 | 41.45995 | 28.81624 | 9392 ft | 268 kts | 353° |
| 2026-05-07 05:42 | 41.47860 | 28.81387 | 10332 ft | 273 kts | 353° |
| 2026-05-07 05:42 | 41.49827 | 28.81109 | 10800 ft | 295 kts | 352° |
| 2026-05-07 05:42 | 41.51930 | 28.80615 | 11190 ft | 317 kts | 347° |
| 2026-05-07 05:42 | 41.54096 | 28.79790 | 11865 ft | 327 kts | 341° |
| 2026-05-07 05:43 | 41.56227 | 28.78639 | 12702 ft | 333 kts | 335° |
| 2026-05-07 05:43 | 41.58286 | 28.77160 | 13567 ft | 339 kts | 329° |
| 2026-05-07 05:43 | 41.60240 | 28.75354 | 14370 ft | 344 kts | 323° |
| 2026-05-07 05:43 | 41.62048 | 28.73237 | 15167 ft | 348 kts | 317° |
| 2026-05-07 05:44 | 41.63681 | 28.70830 | 16007 ft | 351 kts | 310° |
| 2026-05-07 05:44 | 41.65115 | 28.68153 | 16781 ft | 357 kts | 304° |
| 2026-05-07 05:44 | 41.65938 | 28.66246 | 17302 ft | 360 kts | 300° |
| 2026-05-07 05:44 | 41.66986 | 28.63187 | 18129 ft | 364 kts | 295° |
| 2026-05-07 05:45 | 41.67965 | 28.60053 | 18889 ft | 367 kts | 295° |
| 2026-05-07 05:45 | 41.68948 | 28.56889 | 19593 ft | 370 kts | 295° |
| 2026-05-07 05:45 | 41.69947 | 28.53702 | 20336 ft | 373 kts | 296° |
| 2026-05-07 05:45 | 41.70967 | 28.50488 | 21088 ft | 376 kts | 296° |
| 2026-05-07 05:46 | 41.72003 | 28.47254 | 21816 ft | 379 kts | 296° |
| 2026-05-07 05:46 | 41.73052 | 28.43994 | 22546 ft | 383 kts | 296° |
| 2026-05-07 05:46 | 41.74114 | 28.40706 | 23245 ft | 386 kts | 296° |
| 2026-05-07 05:46 | 41.75183 | 28.37393 | 23925 ft | 389 kts | 296° |
| 2026-05-07 05:47 | 41.76261 | 28.34046 | 24543 ft | 392 kts | 296° |
| 2026-05-07 05:47 | 41.77329 | 28.30724 | 25132 ft | 395 kts | 296° |
| 2026-05-07 05:47 | 41.78418 | 28.27330 | 25719 ft | 398 kts | 296° |
| 2026-05-07 05:47 | 41.79516 | 28.23904 | 26315 ft | 401 kts | 296° |
| 2026-05-07 05:48 | 41.80620 | 28.20455 | 26888 ft | 404 kts | 296° |
| 2026-05-07 05:48 | 41.81730 | 28.16982 | 27476 ft | 407 kts | 296° |
| 2026-05-07 05:48 | 41.82845 | 28.13486 | 28045 ft | 410 kts | 296° |
| 2026-05-07 05:48 | 41.83970 | 28.09958 | 28613 ft | 413 kts | 296° |
| 2026-05-07 05:49 | 41.85103 | 28.06399 | 29162 ft | 416 kts | 296° |
| 2026-05-07 05:49 | 41.86242 | 28.02818 | 29686 ft | 419 kts | 296° |
| 2026-05-07 05:49 | 41.87387 | 27.99209 | 30225 ft | 422 kts | 295° |
| 2026-05-07 05:49 | 41.88540 | 27.95573 | 30647 ft | 425 kts | 295° |
| 2026-05-07 05:50 | 41.89702 | 27.91906 | 31051 ft | 428 kts | 295° |
| 2026-05-07 05:50 | 41.90868 | 27.88216 | 31441 ft | 431 kts | 295° |
| 2026-05-07 05:50 | 41.92045 | 27.84491 | 31854 ft | 434 kts | 295° |
| 2026-05-07 05:50 | 41.93228 | 27.80740 | 32218 ft | 437 kts | 295° |
| 2026-05-07 05:51 | 41.94417 | 27.76963 | 32590 ft | 440 kts | 295° |
| 2026-05-07 05:51 | 41.95611 | 27.73165 | 32955 ft | 443 kts | 295° |
| 2026-05-07 05:51 | 41.96813 | 27.69333 | 33315 ft | 445 kts | 295° |
| 2026-05-07 05:51 | 41.98020 | 27.65484 | 33656 ft | 448 kts | 295° |
| 2026-05-07 05:52 | 41.99216 | 27.61662 | 33980 ft | 451 kts | 295° |
| 2026-05-07 05:52 | 42.00435 | 27.57766 | 34263 ft | 453 kts | 295° |
| 2026-05-07 05:52 | 42.01660 | 27.53843 | 34550 ft | 455 kts | 295° |
| 2026-05-07 05:52 | 42.02881 | 27.49923 | 34952 ft | 454 kts | 294° |
| 2026-05-07 05:53 | 42.04040 | 27.46196 | 35326 ft | 453 kts | 294° |
| 2026-05-07 05:53 | 42.05255 | 27.42285 | 35689 ft | 452 kts | 294° |
| 2026-05-07 05:53 | 42.06468 | 27.38376 | 36039 ft | 452 kts | 294° |
| 2026-05-07 05:53 | 42.07678 | 27.34472 | 36381 ft | 452 kts | 294° |
| 2026-05-07 05:54 | 42.08885 | 27.30568 | 36716 ft | 452 kts | 294° |
| 2026-05-07 05:54 | 42.10091 | 27.26667 | 37047 ft | 451 kts | 294° |
| 2026-05-07 05:54 | 42.11295 | 27.22763 | 37383 ft | 451 kts | 294° |
| 2026-05-07 05:54 | 42.12497 | 27.18862 | 37743 ft | 449 kts | 293° |
| 2026-05-07 05:55 | 42.13690 | 27.14983 | 38084 ft | 449 kts | 293° |
| 2026-05-07 05:55 | 42.14885 | 27.11091 | 38380 ft | 449 kts | 293° |
| 2026-05-07 05:55 | 42.16078 | 27.07204 | 38675 ft | 448 kts | 293° |
| 2026-05-07 05:55 | 42.17269 | 27.03315 | 38928 ft | 448 kts | 293° |
| 2026-05-07 05:56 | 42.18441 | 26.99481 | 39130 ft | 448 kts | 293° |
| 2026-05-07 05:56 | 42.19630 | 26.95589 | 39322 ft | 449 kts | 293° |
| 2026-05-07 05:56 | 42.20816 | 26.91701 | 39563 ft | 448 kts | 292° |
| 2026-05-07 05:56 | 42.21998 | 26.87818 | 39799 ft | 447 kts | 292° |
| 2026-05-07 05:57 | 42.23178 | 26.83935 | 39964 ft | 448 kts | 292° |
| 2026-05-07 05:57 | 42.24361 | 26.80040 | 40090 ft | 449 kts | 292° |
| 2026-05-07 05:57 | 42.25550 | 26.76118 | 40112 ft | 452 kts | 292° |
| 2026-05-07 05:58 | 42.27925 | 26.68263 | 40117 ft | 452 kts | 292° |
| 2026-05-07 05:58 | 42.30293 | 26.60409 | 40118 ft | 450 kts | 292° |
| 2026-05-07 05:59 | 42.32646 | 26.52581 | 40126 ft | 449 kts | 292° |
| 2026-05-07 05:59 | 42.34992 | 26.44753 | 40128 ft | 449 kts | 292° |
| 2026-05-07 06:00 | 42.37332 | 26.36921 | 40127 ft | 449 kts | 292° |
| 2026-05-07 06:00 | 42.39662 | 26.29101 | 40130 ft | 448 kts | 292° |
| 2026-05-07 06:01 | 42.41983 | 26.21284 | 40115 ft | 447 kts | 292° |
| 2026-05-07 06:01 | 42.44285 | 26.13510 | 40110 ft | 448 kts | 291° |
| 2026-05-07 06:02 | 42.46595 | 26.05685 | 40100 ft | 448 kts | 291° |
| 2026-05-07 06:02 | 42.48903 | 25.97841 | 40108 ft | 448 kts | 291° |
| 2026-05-07 06:03 | 42.51203 | 25.90001 | 40100 ft | 448 kts | 291° |
| 2026-05-07 06:03 | 42.53501 | 25.82145 | 40099 ft | 447 kts | 291° |
| 2026-05-07 06:04 | 42.55778 | 25.74339 | 40090 ft | 447 kts | 291° |
| 2026-05-07 06:04 | 42.58064 | 25.66476 | 40085 ft | 448 kts | 291° |
| 2026-05-07 06:05 | 42.60348 | 25.58595 | 40083 ft | 449 kts | 291° |
| 2026-05-07 06:05 | 42.62628 | 25.50701 | 40081 ft | 449 kts | 291° |
| 2026-05-07 06:06 | 42.64904 | 25.42800 | 40073 ft | 449 kts | 291° |
| 2026-05-07 06:06 | 42.67158 | 25.34948 | 40075 ft | 449 kts | 291° |
| 2026-05-07 06:07 | 42.69425 | 25.27031 | 40078 ft | 449 kts | 291° |
| 2026-05-07 06:07 | 42.71685 | 25.19107 | 40071 ft | 449 kts | 291° |
| 2026-05-07 06:08 | 42.73941 | 25.11179 | 40074 ft | 449 kts | 291° |
| 2026-05-07 06:08 | 42.76192 | 25.03241 | 40070 ft | 449 kts | 291° |
| 2026-05-07 06:09 | 42.78438 | 24.95294 | 40069 ft | 450 kts | 291° |
| 2026-05-07 06:09 | 42.80676 | 24.87350 | 40070 ft | 450 kts | 291° |
| 2026-05-07 06:10 | 42.82912 | 24.79387 | 40064 ft | 450 kts | 290° |
| 2026-05-07 06:10 | 42.85143 | 24.71417 | 40066 ft | 451 kts | 290° |
| 2026-05-07 06:11 | 42.87360 | 24.63471 | 40059 ft | 451 kts | 290° |
| 2026-05-07 06:11 | 42.89587 | 24.55467 | 40059 ft | 451 kts | 290° |
| 2026-05-07 06:12 | 42.91809 | 24.47452 | 40059 ft | 452 kts | 290° |
| 2026-05-07 06:12 | 42.94035 | 24.39403 | 40058 ft | 454 kts | 290° |
| 2026-05-07 06:13 | 42.96257 | 24.31336 | 40052 ft | 454 kts | 290° |
| 2026-05-07 06:13 | 42.98474 | 24.23260 | 40050 ft | 454 kts | 290° |
| 2026-05-07 06:14 | 43.00689 | 24.15166 | 40048 ft | 455 kts | 290° |
| 2026-05-07 06:14 | 43.02904 | 24.07044 | 40051 ft | 456 kts | 290° |
| 2026-05-07 06:15 | 43.05101 | 23.98963 | 40052 ft | 456 kts | 290° |
| 2026-05-07 06:15 | 43.07306 | 23.90825 | 40053 ft | 456 kts | 290° |
| 2026-05-07 06:16 | 43.09507 | 23.82676 | 40052 ft | 457 kts | 289° |
| 2026-05-07 06:16 | 43.11705 | 23.74509 | 40053 ft | 457 kts | 289° |
| 2026-05-07 06:17 | 43.13896 | 23.66343 | 40061 ft | 457 kts | 289° |
| 2026-05-07 06:17 | 43.16082 | 23.58167 | 40070 ft | 457 kts | 289° |
| 2026-05-07 06:18 | 43.18249 | 23.50036 | 40064 ft | 457 kts | 289° |
| 2026-05-07 06:18 | 43.20423 | 23.41851 | 40073 ft | 457 kts | 289° |
| 2026-05-07 06:19 | 43.22587 | 23.33670 | 40070 ft | 457 kts | 289° |
| 2026-05-07 06:19 | 43.24750 | 23.25468 | 40076 ft | 457 kts | 289° |
| 2026-05-07 06:20 | 43.26908 | 23.17259 | 40078 ft | 457 kts | 289° |
| 2026-05-07 06:20 | 43.29060 | 23.09042 | 40078 ft | 457 kts | 289° |
| 2026-05-07 06:21 | 43.31207 | 23.00819 | 40079 ft | 457 kts | 289° |
| 2026-05-07 06:21 | 43.33334 | 22.92643 | 40084 ft | 457 kts | 288° |
| 2026-05-07 06:22 | 43.35462 | 22.84435 | 40081 ft | 455 kts | 288° |
| 2026-05-07 06:22 | 43.37845 | 22.71872 | 40081 ft | 453 kts | 277° |
| 2026-05-07 06:23 | 43.38643 | 22.63272 | 40080 ft | 453 kts | 276° |
| 2026-05-07 06:23 | 43.39346 | 22.54673 | 40082 ft | 452 kts | 276° |
| 2026-05-07 06:24 | 43.40046 | 22.46095 | 40077 ft | 450 kts | 276° |
| 2026-05-07 06:24 | 43.40753 | 22.37537 | 40075 ft | 450 kts | 276° |
| 2026-05-07 06:25 | 43.41461 | 22.28978 | 40078 ft | 450 kts | 276° |
| 2026-05-07 06:25 | 43.42157 | 22.20485 | 40087 ft | 450 kts | 275° |
| 2026-05-07 06:26 | 43.42851 | 22.11940 | 40087 ft | 449 kts | 275° |
| 2026-05-07 06:26 | 43.43536 | 22.03410 | 40095 ft | 449 kts | 275° |
| 2026-05-07 06:27 | 43.44216 | 21.94864 | 40098 ft | 449 kts | 275° |
| 2026-05-07 06:27 | 43.44889 | 21.86324 | 40098 ft | 449 kts | 275° |
| 2026-05-07 06:28 | 43.45557 | 21.77771 | 40094 ft | 449 kts | 275° |
| 2026-05-07 06:28 | 43.46214 | 21.69281 | 40092 ft | 449 kts | 275° |
| 2026-05-07 06:29 | 43.46868 | 21.60728 | 40087 ft | 449 kts | 275° |
| 2026-05-07 06:29 | 43.47516 | 21.52177 | 40069 ft | 449 kts | 275° |
| 2026-05-07 06:30 | 43.48159 | 21.43610 | 40072 ft | 450 kts | 274° |
| 2026-05-07 06:30 | 43.48797 | 21.35020 | 40074 ft | 451 kts | 274° |
| 2026-05-07 06:31 | 43.49429 | 21.26422 | 40072 ft | 451 kts | 274° |
| 2026-05-07 06:31 | 43.50054 | 21.17823 | 40072 ft | 451 kts | 274° |
| 2026-05-07 06:32 | 43.50673 | 21.09224 | 40077 ft | 452 kts | 274° |
| 2026-05-07 06:32 | 43.51172 | 21.02222 | 40073 ft | 454 kts | 274° |
| 2026-05-07 06:33 | 43.51883 | 20.92132 | 40075 ft | 455 kts | 274° |
| 2026-05-07 06:33 | 43.52387 | 20.84915 | 40076 ft | 455 kts | 274° |
| 2026-05-07 06:34 | 43.52986 | 20.76243 | 40094 ft | 455 kts | 274° |
| 2026-05-07 06:34 | 43.53580 | 20.67555 | 40082 ft | 455 kts | 274° |
| 2026-05-07 06:35 | 43.54165 | 20.58859 | 40081 ft | 455 kts | 273° |
| 2026-05-07 06:35 | 43.54746 | 20.50164 | 40084 ft | 455 kts | 273° |
| 2026-05-07 06:36 | 43.55320 | 20.41471 | 40083 ft | 456 kts | 273° |
| 2026-05-07 06:36 | 43.55888 | 20.32761 | 40077 ft | 456 kts | 273° |
| 2026-05-07 06:37 | 43.56445 | 20.24110 | 40078 ft | 456 kts | 273° |
| 2026-05-07 06:37 | 43.57000 | 20.15407 | 40082 ft | 456 kts | 273° |
| 2026-05-07 06:38 | 43.57547 | 20.06701 | 40082 ft | 455 kts | 273° |
| 2026-05-07 06:38 | 43.58088 | 19.97997 | 40082 ft | 455 kts | 272° |
| 2026-05-07 06:39 | 43.58622 | 19.89275 | 40079 ft | 456 kts | 272° |
| 2026-05-07 06:39 | 43.59150 | 19.80568 | 40081 ft | 456 kts | 272° |
| 2026-05-07 06:40 | 43.59671 | 19.71850 | 40077 ft | 456 kts | 272° |
| 2026-05-07 06:40 | 43.60186 | 19.63131 | 40073 ft | 456 kts | 272° |
| 2026-05-07 06:41 | 43.60694 | 19.54398 | 40082 ft | 457 kts | 272° |
| 2026-05-07 06:41 | 43.61197 | 19.45660 | 40080 ft | 456 kts | 272° |
| 2026-05-07 06:42 | 43.61689 | 19.36980 | 40068 ft | 456 kts | 272° |
| 2026-05-07 06:42 | 43.62181 | 19.28191 | 40082 ft | 456 kts | 272° |
| 2026-05-07 06:43 | 43.62659 | 19.19511 | 40072 ft | 457 kts | 272° |
| 2026-05-07 06:43 | 43.63135 | 19.10757 | 40063 ft | 457 kts | 271° |
| 2026-05-07 06:44 | 43.63606 | 19.02008 | 40073 ft | 457 kts | 271° |
| 2026-05-07 06:44 | 43.64069 | 18.93251 | 40063 ft | 457 kts | 271° |
| 2026-05-07 06:45 | 43.64525 | 18.84503 | 40077 ft | 457 kts | 271° |
| 2026-05-07 06:45 | 43.64974 | 18.75746 | 40074 ft | 457 kts | 271° |
| 2026-05-07 06:46 | 43.65416 | 18.67000 | 40076 ft | 457 kts | 271° |
| 2026-05-07 06:46 | 43.65852 | 18.58240 | 40075 ft | 457 kts | 271° |
| 2026-05-07 06:47 | 43.66270 | 18.49738 | 40079 ft | 456 kts | 271° |
| 2026-05-07 06:47 | 43.66692 | 18.40989 | 40076 ft | 456 kts | 271° |
| 2026-05-07 06:48 | 43.67108 | 18.32247 | 40073 ft | 456 kts | 271° |
| 2026-05-07 06:48 | 43.67517 | 18.23495 | 40079 ft | 456 kts | 271° |
| 2026-05-07 06:49 | 43.67920 | 18.14740 | 40083 ft | 456 kts | 271° |
| 2026-05-07 06:49 | 43.68314 | 18.06003 | 40083 ft | 456 kts | 271° |
| 2026-05-07 06:50 | 43.68703 | 17.97244 | 40086 ft | 456 kts | 271° |
| 2026-05-07 06:50 | 43.69083 | 17.88543 | 40085 ft | 456 kts | 271° |
| 2026-05-07 06:51 | 43.69458 | 17.79787 | 40085 ft | 456 kts | 270° |
| 2026-05-07 06:51 | 43.69826 | 17.71024 | 40076 ft | 456 kts | 271° |
| 2026-05-07 06:52 | 43.70189 | 17.62261 | 40080 ft | 456 kts | 271° |
| 2026-05-07 06:52 | 43.70544 | 17.53498 | 40083 ft | 457 kts | 270° |
| 2026-05-07 06:53 | 43.70894 | 17.44732 | 40075 ft | 456 kts | 270° |
| 2026-05-07 06:53 | 43.71236 | 17.35978 | 40075 ft | 456 kts | 270° |
| 2026-05-07 06:54 | 43.71571 | 17.27224 | 40073 ft | 456 kts | 270° |
| 2026-05-07 06:54 | 43.71900 | 17.18462 | 40062 ft | 456 kts | 270° |
| 2026-05-07 06:55 | 43.72220 | 17.09757 | 40063 ft | 456 kts | 270° |
| 2026-05-07 06:55 | 43.72537 | 17.01002 | 40063 ft | 456 kts | 270° |
| 2026-05-07 06:56 | 43.72845 | 16.92246 | 40052 ft | 455 kts | 270° |
| 2026-05-07 06:56 | 43.73144 | 16.83488 | 40054 ft | 456 kts | 270° |
| 2026-05-07 06:57 | 43.73439 | 16.74734 | 40045 ft | 456 kts | 270° |
| 2026-05-07 06:57 | 43.73728 | 16.65964 | 40047 ft | 455 kts | 270° |
| 2026-05-07 06:58 | 43.74009 | 16.57223 | 40040 ft | 455 kts | 270° |
| 2026-05-07 06:58 | 43.74282 | 16.48536 | 40029 ft | 455 kts | 270° |
| 2026-05-07 06:59 | 43.74550 | 16.39793 | 40028 ft | 455 kts | 270° |
| 2026-05-07 06:59 | 43.74811 | 16.31041 | 40028 ft | 455 kts | 270° |
| 2026-05-07 07:00 | 43.75065 | 16.22303 | 40028 ft | 454 kts | 270° |
| 2026-05-07 07:00 | 43.75313 | 16.13576 | 40018 ft | 454 kts | 270° |
| 2026-05-07 07:01 | 43.75552 | 16.04900 | 40012 ft | 454 kts | 270° |
| 2026-05-07 07:01 | 43.75786 | 15.96158 | 40020 ft | 454 kts | 270° |
| 2026-05-07 07:02 | 43.76013 | 15.87438 | 40013 ft | 452 kts | 270° |
| 2026-05-07 07:02 | 43.76233 | 15.78787 | 40012 ft | 452 kts | 269° |
| 2026-05-07 07:03 | 43.76445 | 15.70101 | 40015 ft | 452 kts | 269° |
| 2026-05-07 07:03 | 43.76651 | 15.61410 | 40017 ft | 452 kts | 269° |
| 2026-05-07 07:04 | 43.76851 | 15.52748 | 40003 ft | 450 kts | 269° |
| 2026-05-07 07:04 | 43.77043 | 15.44095 | 40007 ft | 449 kts | 269° |
| 2026-05-07 07:05 | 43.77229 | 15.35456 | 40002 ft | 449 kts | 269° |
| 2026-05-07 07:05 | 43.77408 | 15.26804 | 40009 ft | 449 kts | 269° |
| 2026-05-07 07:06 | 43.77581 | 15.18176 | 39996 ft | 449 kts | 269° |
| 2026-05-07 07:06 | 43.77747 | 15.09549 | 39996 ft | 448 kts | 269° |
| 2026-05-07 07:07 | 43.77906 | 15.00965 | 40004 ft | 449 kts | 269° |
| 2026-05-07 07:07 | 43.78059 | 14.92345 | 40008 ft | 448 kts | 269° |
| 2026-05-07 07:08 | 43.78205 | 14.83709 | 39999 ft | 448 kts | 269° |
| 2026-05-07 07:08 | 43.78345 | 14.75090 | 39997 ft | 448 kts | 269° |
| 2026-05-07 07:09 | 43.78478 | 14.66473 | 40002 ft | 448 kts | 269° |
| 2026-05-07 07:09 | 43.78605 | 14.57849 | 40000 ft | 448 kts | 268° |
| 2026-05-07 07:10 | 43.78725 | 14.49278 | 40001 ft | 448 kts | 268° |
| 2026-05-07 07:10 | 43.78839 | 14.40642 | 40001 ft | 448 kts | 268° |
| 2026-05-07 07:11 | 43.78947 | 14.32029 | 39998 ft | 448 kts | 268° |
| 2026-05-07 07:11 | 43.79048 | 14.23418 | 40002 ft | 448 kts | 268° |
| 2026-05-07 07:12 | 43.78569 | 14.14860 | 40006 ft | 443 kts | 256° |
| 2026-05-07 07:12 | 43.77160 | 14.06559 | 39998 ft | 443 kts | 254° |
| 2026-05-07 07:13 | 43.75592 | 13.98326 | 39999 ft | 442 kts | 253° |
| 2026-05-07 07:13 | 43.74013 | 13.90150 | 39997 ft | 443 kts | 253° |
| 2026-05-07 07:14 | 43.72433 | 13.81917 | 40005 ft | 443 kts | 253° |
| 2026-05-07 07:14 | 43.70854 | 13.73672 | 39996 ft | 443 kts | 253° |
| 2026-05-07 07:15 | 43.69271 | 13.65430 | 39996 ft | 443 kts | 253° |
| 2026-05-07 07:15 | 43.67681 | 13.57185 | 39995 ft | 443 kts | 253° |
| 2026-05-07 07:16 | 43.66097 | 13.49010 | 40007 ft | 443 kts | 253° |
| 2026-05-07 07:16 | 43.64493 | 13.40769 | 39993 ft | 444 kts | 253° |
| 2026-05-07 07:17 | 43.62881 | 13.32521 | 39986 ft | 445 kts | 253° |
| 2026-05-07 07:17 | 43.61264 | 13.24280 | 39993 ft | 444 kts | 253° |
| 2026-05-07 07:18 | 43.59641 | 13.16048 | 39994 ft | 445 kts | 253° |
| 2026-05-07 07:18 | 43.58011 | 13.07808 | 39996 ft | 446 kts | 253° |
| 2026-05-07 07:19 | 43.56381 | 12.99611 | 39996 ft | 446 kts | 253° |
| 2026-05-07 07:19 | 43.54734 | 12.91353 | 39989 ft | 446 kts | 253° |
| 2026-05-07 07:20 | 43.53080 | 12.83102 | 39992 ft | 446 kts | 253° |
| 2026-05-07 07:20 | 43.51422 | 12.74859 | 40005 ft | 447 kts | 253° |
| 2026-05-07 07:21 | 43.49763 | 12.66643 | 39987 ft | 444 kts | 253° |
| 2026-05-07 07:21 | 43.48102 | 12.58455 | 39996 ft | 443 kts | 253° |
| 2026-05-07 07:22 | 43.46436 | 12.50278 | 39994 ft | 443 kts | 253° |
| 2026-05-07 07:22 | 43.44765 | 12.42109 | 39995 ft | 443 kts | 253° |
| 2026-05-07 07:23 | 43.43372 | 12.35325 | 39997 ft | 443 kts | 253° |
| 2026-05-07 07:23 | 43.41418 | 12.25847 | 39993 ft | 443 kts | 253° |
| 2026-05-07 07:24 | 43.39731 | 12.17696 | 39998 ft | 443 kts | 253° |
| 2026-05-07 07:24 | 43.38312 | 12.10870 | 39991 ft | 443 kts | 253° |
| 2026-05-07 07:25 | 43.35781 | 11.98735 | 39999 ft | 441 kts | 253° |
| 2026-05-07 07:26 | 43.34079 | 11.90621 | 40000 ft | 441 kts | 253° |
| 2026-05-07 07:26 | 43.32375 | 11.82530 | 39998 ft | 441 kts | 253° |
| 2026-05-07 07:27 | 43.30668 | 11.74456 | 40006 ft | 441 kts | 253° |
| 2026-05-07 07:27 | 43.28950 | 11.66364 | 40012 ft | 441 kts | 252° |
| 2026-05-07 07:28 | 43.27230 | 11.58288 | 39998 ft | 441 kts | 252° |
| 2026-05-07 07:28 | 43.25515 | 11.50270 | 40001 ft | 440 kts | 252° |
| 2026-05-07 07:29 | 43.23785 | 11.42210 | 39998 ft | 440 kts | 252° |
| 2026-05-07 07:29 | 43.22054 | 11.34175 | 39999 ft | 439 kts | 252° |
| 2026-05-07 07:30 | 43.20315 | 11.26137 | 40003 ft | 440 kts | 252° |
| 2026-05-07 07:30 | 43.18567 | 11.18087 | 39995 ft | 441 kts | 252° |
| 2026-05-07 07:31 | 43.16813 | 11.10042 | 39997 ft | 441 kts | 252° |
| 2026-05-07 07:31 | 43.15053 | 11.01999 | 40001 ft | 441 kts | 252° |
| 2026-05-07 07:32 | 43.13284 | 10.93946 | 39998 ft | 441 kts | 252° |
| 2026-05-07 07:32 | 43.11515 | 10.85920 | 40008 ft | 441 kts | 252° |
| 2026-05-07 07:33 | 43.09739 | 10.77894 | 39997 ft | 440 kts | 252° |
| 2026-05-07 07:33 | 43.07975 | 10.69949 | 40011 ft | 439 kts | 252° |
| 2026-05-07 07:34 | 43.06192 | 10.61952 | 40007 ft | 439 kts | 252° |
| 2026-05-07 07:34 | 43.04406 | 10.53971 | 40018 ft | 439 kts | 252° |
| 2026-05-07 07:35 | 43.02610 | 10.45973 | 40008 ft | 440 kts | 252° |
| 2026-05-07 07:35 | 43.00806 | 10.37974 | 40016 ft | 440 kts | 252° |
| 2026-05-07 07:36 | 42.99000 | 10.29990 | 40018 ft | 440 kts | 252° |
| 2026-05-07 07:36 | 42.97185 | 10.21995 | 40006 ft | 440 kts | 252° |
| 2026-05-07 07:37 | 42.95368 | 10.14024 | 40011 ft | 440 kts | 252° |
| 2026-05-07 07:37 | 42.93556 | 10.06098 | 40009 ft | 440 kts | 252° |
| 2026-05-07 07:38 | 42.91838 | 9.98088 | 40007 ft | 440 kts | 257° |
| 2026-05-07 07:38 | 42.91381 | 9.93958 | 39779 ft | 440 kts | 264° |
| 2026-05-07 07:38 | 42.91353 | 9.89787 | 39548 ft | 441 kts | 272° |
| 2026-05-07 07:38 | 42.91786 | 9.85624 | 39319 ft | 444 kts | 279° |
| 2026-05-07 07:39 | 42.92679 | 9.81588 | 39061 ft | 446 kts | 288° |
| 2026-05-07 07:39 | 42.94017 | 9.77762 | 38480 ft | 448 kts | 296° |
| 2026-05-07 07:39 | 42.95624 | 9.74109 | 38083 ft | 448 kts | 295° |
| 2026-05-07 07:40 | 42.98252 | 9.66417 | 38008 ft | 449 kts | 291° |
| 2026-05-07 07:40 | 43.00953 | 9.58706 | 38005 ft | 449 kts | 291° |
| 2026-05-07 07:41 | 43.03582 | 9.51037 | 38038 ft | 448 kts | 290° |
| 2026-05-07 07:41 | 43.06209 | 9.43281 | 37966 ft | 449 kts | 290° |
| 2026-05-07 07:41 | 43.07511 | 9.39432 | 37352 ft | 446 kts | 290° |
| 2026-05-07 07:42 | 43.08814 | 9.35570 | 36396 ft | 449 kts | 290° |
| 2026-05-07 07:42 | 43.10125 | 9.31678 | 35528 ft | 451 kts | 290° |
| 2026-05-07 07:42 | 43.11438 | 9.27777 | 34694 ft | 451 kts | 289° |
| 2026-05-07 07:42 | 43.12750 | 9.23878 | 33847 ft | 451 kts | 289° |
| 2026-05-07 07:43 | 43.14061 | 9.19975 | 32854 ft | 451 kts | 289° |
| 2026-05-07 07:43 | 43.15377 | 9.16051 | 31891 ft | 452 kts | 289° |
| 2026-05-07 07:43 | 43.16685 | 9.12152 | 31226 ft | 448 kts | 289° |
| 2026-05-07 07:43 | 43.17975 | 9.08305 | 30641 ft | 442 kts | 289° |
| 2026-05-07 07:44 | 43.19252 | 9.04495 | 30032 ft | 437 kts | 289° |
| 2026-05-07 07:44 | 43.20508 | 9.00737 | 29408 ft | 431 kts | 289° |
| 2026-05-07 07:44 | 43.21727 | 8.97073 | 28821 ft | 424 kts | 289° |
| 2026-05-07 07:44 | 43.22668 | 8.93320 | 28270 ft | 411 kts | 278° |
| 2026-05-07 07:45 | 43.23235 | 8.89518 | 27712 ft | 403 kts | 276° |
| 2026-05-07 07:45 | 43.23720 | 8.85759 | 27166 ft | 398 kts | 276° |
| 2026-05-07 07:45 | 43.24182 | 8.82041 | 26617 ft | 393 kts | 276° |
| 2026-05-07 07:45 | 43.24632 | 8.78370 | 26085 ft | 388 kts | 276° |
| 2026-05-07 07:46 | 43.25074 | 8.74731 | 25542 ft | 384 kts | 276° |
| 2026-05-07 07:46 | 43.25508 | 8.71138 | 25028 ft | 380 kts | 276° |
| 2026-05-07 07:46 | 43.25937 | 8.67571 | 24469 ft | 377 kts | 276° |
| 2026-05-07 07:46 | 43.26361 | 8.64033 | 23926 ft | 375 kts | 276° |
| 2026-05-07 07:47 | 43.26782 | 8.60515 | 23353 ft | 372 kts | 276° |
| 2026-05-07 07:47 | 43.27197 | 8.57028 | 22761 ft | 368 kts | 276° |
| 2026-05-07 07:47 | 43.27608 | 8.53577 | 22217 ft | 364 kts | 276° |
| 2026-05-07 07:47 | 43.28012 | 8.50172 | 21668 ft | 360 kts | 276° |
| 2026-05-07 07:48 | 43.28411 | 8.46803 | 21131 ft | 356 kts | 277° |
| 2026-05-07 07:48 | 43.28804 | 8.43469 | 20583 ft | 353 kts | 277° |
| 2026-05-07 07:48 | 43.29194 | 8.40155 | 20048 ft | 351 kts | 277° |
| 2026-05-07 07:48 | 43.29581 | 8.36859 | 19488 ft | 349 kts | 277° |
| 2026-05-07 07:49 | 43.29965 | 8.33575 | 18970 ft | 347 kts | 277° |
| 2026-05-07 07:49 | 43.30346 | 8.30310 | 18419 ft | 345 kts | 277° |
| 2026-05-07 07:49 | 43.30719 | 8.27110 | 17825 ft | 343 kts | 277° |
| 2026-05-07 07:49 | 43.31093 | 8.23891 | 17279 ft | 340 kts | 277° |
| 2026-05-07 07:50 | 43.31463 | 8.20698 | 16733 ft | 337 kts | 277° |
| 2026-05-07 07:50 | 43.31831 | 8.17519 | 16213 ft | 336 kts | 278° |
| 2026-05-07 07:50 | 43.32195 | 8.14360 | 15655 ft | 334 kts | 278° |
| 2026-05-07 07:50 | 43.32557 | 8.11214 | 15133 ft | 333 kts | 278° |
| 2026-05-07 07:51 | 43.32916 | 8.08084 | 14597 ft | 331 kts | 278° |
| 2026-05-07 07:51 | 43.33273 | 8.04965 | 14079 ft | 329 kts | 278° |
| 2026-05-07 07:51 | 43.33627 | 8.01861 | 13511 ft | 328 kts | 278° |
| 2026-05-07 07:51 | 43.33979 | 7.98775 | 12958 ft | 326 kts | 278° |
| 2026-05-07 07:52 | 43.34326 | 7.95723 | 12435 ft | 323 kts | 278° |
| 2026-05-07 07:52 | 43.34667 | 7.92715 | 11912 ft | 321 kts | 278° |
| 2026-05-07 07:52 | 43.35009 | 7.89696 | 11384 ft | 318 kts | 278° |
| 2026-05-07 07:52 | 43.35346 | 7.86713 | 10927 ft | 313 kts | 278° |
| 2026-05-07 07:53 | 43.35671 | 7.83830 | 10784 ft | 297 kts | 278° |
| 2026-05-07 07:53 | 43.35979 | 7.81096 | 10675 ft | 282 kts | 277° |
| 2026-05-07 07:53 | 43.36270 | 7.78495 | 10559 ft | 269 kts | 278° |
| 2026-05-07 07:53 | 43.36548 | 7.76010 | 10457 ft | 258 kts | 277° |
| 2026-05-07 07:54 | 43.36817 | 7.73598 | 10333 ft | 254 kts | 277° |
| 2026-05-07 07:54 | 43.37084 | 7.71188 | 10105 ft | 255 kts | 277° |
| 2026-05-07 07:54 | 43.37341 | 7.68869 | 9794 ft | 259 kts | 277° |
| 2026-05-07 07:54 | 43.37619 | 7.66350 | 9560 ft | 271 kts | 278° |
| 2026-05-07 07:55 | 43.37903 | 7.63786 | 9334 ft | 270 kts | 278° |
| 2026-05-07 07:55 | 43.38186 | 7.61229 | 8819 ft | 271 kts | 278° |
| 2026-05-07 07:55 | 43.38468 | 7.58672 | 8405 ft | 268 kts | 278° |
| 2026-05-07 07:55 | 43.38743 | 7.56175 | 8061 ft | 266 kts | 278° |
| 2026-05-07 07:56 | 43.39018 | 7.53668 | 7726 ft | 265 kts | 278° |
| 2026-05-07 07:56 | 43.39292 | 7.51171 | 7400 ft | 263 kts | 278° |
| 2026-05-07 07:56 | 43.39563 | 7.48688 | 7076 ft | 262 kts | 278° |
| 2026-05-07 07:56 | 43.39833 | 7.46218 | 6750 ft | 260 kts | 278° |
| 2026-05-07 07:57 | 43.40100 | 7.43758 | 6418 ft | 259 kts | 278° |
| 2026-05-07 07:57 | 43.40367 | 7.41304 | 6093 ft | 258 kts | 278° |
| 2026-05-07 07:57 | 43.40631 | 7.38867 | 5772 ft | 257 kts | 278° |
| 2026-05-07 07:57 | 43.40895 | 7.36435 | 5451 ft | 257 kts | 278° |
| 2026-05-07 07:58 | 43.41157 | 7.34007 | 5158 ft | 256 kts | 278° |
| 2026-05-07 07:58 | 43.41417 | 7.31589 | 4854 ft | 255 kts | 278° |
| 2026-05-07 07:58 | 43.41677 | 7.29176 | 4549 ft | 255 kts | 278° |
| 2026-05-07 07:58 | 43.41932 | 7.26797 | 4292 ft | 252 kts | 278° |
| 2026-05-07 07:59 | 43.42183 | 7.24469 | 4176 ft | 239 kts | 278° |
| 2026-05-07 07:59 | 43.42627 | 7.22329 | 4030 ft | 228 kts | 296° |
| 2026-05-07 07:59 | 43.43511 | 7.20589 | 3934 ft | 217 kts | 308° |
| 2026-05-07 07:59 | 43.44477 | 7.19062 | 3832 ft | 206 kts | 310° |
| 2026-05-07 08:00 | 43.45410 | 7.17627 | 3711 ft | 196 kts | 310° |
| 2026-05-07 08:00 | 43.46490 | 7.16516 | 3599 ft | 193 kts | 335° |
| 2026-05-07 08:00 | 43.47789 | 7.16144 | 3575 ft | 192 kts | 352° |
| 2026-05-07 08:00 | 43.49112 | 7.16015 | 3488 ft | 187 kts | 354° |
| 2026-05-07 08:01 | 43.50370 | 7.15918 | 3408 ft | 174 kts | 354° |
| 2026-05-07 08:01 | 43.51560 | 7.15821 | 3166 ft | 170 kts | 353° |
| 2026-05-07 08:01 | 43.52739 | 7.15718 | 2886 ft | 169 kts | 353° |
| 2026-05-07 08:01 | 43.53909 | 7.15608 | 2626 ft | 168 kts | 353° |
| 2026-05-07 08:02 | 43.55074 | 7.15495 | 2380 ft | 167 kts | 352° |
| 2026-05-07 08:02 | 43.56221 | 7.15376 | 2175 ft | 167 kts | 352° |
| 2026-05-07 08:02 | 43.57378 | 7.15258 | 1974 ft | 166 kts | 353° |
| 2026-05-07 08:02 | 43.58528 | 7.15139 | 1771 ft | 165 kts | 353° |
| 2026-05-07 08:03 | 43.59665 | 7.15026 | 1591 ft | 161 kts | 354° |
| 2026-05-07 08:03 | 43.60743 | 7.14974 | 1406 ft | 151 kts | 4° |
| 2026-05-07 08:03 | 43.61679 | 7.15473 | 1222 ft | 144 kts | 37° |
| 2026-05-07 08:03 | 43.62347 | 7.16470 | 961 ft | 141 kts | 50° |
| 2026-05-07 08:04 | 43.63010 | 7.17426 | 738 ft | 134 kts | 42° |
| 2026-05-07 08:04 | 43.63675 | 7.18278 | 495 ft | 127 kts | 45° |
| 2026-05-07 08:04 | 43.64296 | 7.19139 | 465 ft | 139 kts | 46° |
| 2026-05-07 08:04 | 43.65092 | 7.20237 | 984 ft | 183 kts | 47° |
| 2026-05-07 08:05 | 43.66074 | 7.21637 | 1707 ft | 213 kts | 47° |
| 2026-05-07 08:05 | 43.67133 | 7.23164 | 2139 ft | 229 kts | 46° |
| 2026-05-07 08:05 | 43.68267 | 7.24762 | 2336 ft | 229 kts | 47° |
| 2026-05-07 08:05 | 43.69010 | 7.26600 | 2521 ft | 214 kts | 77° |
| 2026-05-07 08:06 | 43.68904 | 7.28569 | 2664 ft | 205 kts | 110° |
| 2026-05-07 08:06 | 43.68349 | 7.30391 | 2942 ft | 206 kts | 113° |
| 2026-05-07 08:06 | 43.67794 | 7.32181 | 3001 ft | 206 kts | 113° |
| 2026-05-07 08:06 | 43.67087 | 7.33902 | 2994 ft | 209 kts | 133° |
| 2026-05-07 08:07 | 43.65887 | 7.35007 | 2998 ft | 208 kts | 154° |
| 2026-05-07 08:07 | 43.64526 | 7.35680 | 3002 ft | 208 kts | 162° |
| 2026-05-07 08:07 | 43.63134 | 7.36259 | 2999 ft | 209 kts | 163° |
| 2026-05-07 08:07 | 43.61742 | 7.36830 | 2997 ft | 208 kts | 163° |
| 2026-05-07 08:08 | 43.60351 | 7.37399 | 2994 ft | 209 kts | 163° |
| 2026-05-07 08:08 | 43.58961 | 7.37966 | 2981 ft | 208 kts | 164° |
| 2026-05-07 08:08 | 43.57574 | 7.38586 | 2977 ft | 207 kts | 163° |
| 2026-05-07 08:08 | 43.56247 | 7.39217 | 2981 ft | 199 kts | 163° |
| 2026-05-07 08:09 | 43.54943 | 7.39830 | 2999 ft | 198 kts | 163° |
| 2026-05-07 08:09 | 43.53644 | 7.40441 | 2985 ft | 197 kts | 163° |
| 2026-05-07 08:09 | 43.52346 | 7.41054 | 2986 ft | 197 kts | 163° |
| 2026-05-07 08:09 | 43.51046 | 7.41661 | 2982 ft | 197 kts | 163° |
| 2026-05-07 08:10 | 43.49745 | 7.42263 | 2986 ft | 197 kts | 163° |
| 2026-05-07 08:10 | 43.48444 | 7.42870 | 2985 ft | 197 kts | 164° |
| 2026-05-07 08:10 | 43.47100 | 7.43002 | 3001 ft | 194 kts | 193° |
| 2026-05-07 08:10 | 43.45806 | 7.42529 | 2984 ft | 192 kts | 200° |
| 2026-05-07 08:11 | 43.44552 | 7.41911 | 2979 ft | 191 kts | 202° |
| 2026-05-07 08:11 | 43.43479 | 7.40907 | 3005 ft | 190 kts | 230° |
| 2026-05-07 08:11 | 43.42699 | 7.39467 | 2980 ft | 187 kts | 242° |
| 2026-05-07 08:11 | 43.42240 | 7.37803 | 2984 ft | 185 kts | 256° |
| 2026-05-07 08:12 | 43.42003 | 7.36061 | 2997 ft | 186 kts | 264° |
| 2026-05-07 08:12 | 43.41944 | 7.34283 | 2988 ft | 186 kts | 270° |
| 2026-05-07 08:12 | 43.41990 | 7.32522 | 2991 ft | 177 kts | 272° |
| 2026-05-07 08:12 | 43.42029 | 7.31428 | 2982 ft | 170 kts | 273° |
| 2026-05-07 08:13 | 43.42085 | 7.29816 | 2984 ft | 168 kts | 273° |
| 2026-05-07 08:13 | 43.42144 | 7.28216 | 2981 ft | 167 kts | 273° |
| 2026-05-07 08:13 | 43.42201 | 7.26621 | 2985 ft | 167 kts | 273° |
| 2026-05-07 08:13 | 43.42258 | 7.25025 | 2984 ft | 167 kts | 272° |
| 2026-05-07 08:14 | 43.42318 | 7.23426 | 2995 ft | 168 kts | 273° |
| 2026-05-07 08:14 | 43.42376 | 7.21818 | 2990 ft | 168 kts | 272° |
| 2026-05-07 08:14 | 43.42437 | 7.20210 | 2992 ft | 168 kts | 273° |
| 2026-05-07 08:14 | 43.42497 | 7.18603 | 3002 ft | 169 kts | 273° |
| 2026-05-07 08:15 | 43.42694 | 7.17016 | 2987 ft | 170 kts | 288° |
| 2026-05-07 08:15 | 43.43455 | 7.15791 | 2993 ft | 174 kts | 329° |
| 2026-05-07 08:15 | 43.44646 | 7.15528 | 3003 ft | 178 kts | 4° |
| 2026-05-07 08:15 | 43.45843 | 7.15981 | 2990 ft | 179 kts | 17° |
| 2026-05-07 08:16 | 43.47042 | 7.16384 | 2999 ft | 178 kts | 355° |
| 2026-05-07 08:16 | 43.48262 | 7.16272 | 2995 ft | 175 kts | 352° |
| 2026-05-07 08:16 | 43.49475 | 7.16110 | 2995 ft | 175 kts | 352° |
| 2026-05-07 08:16 | 43.50688 | 7.15960 | 2977 ft | 176 kts | 353° |
| 2026-05-07 08:17 | 43.51912 | 7.15825 | 2644 ft | 180 kts | 353° |
| 2026-05-07 08:17 | 43.53121 | 7.15699 | 2372 ft | 177 kts | 354° |
| 2026-05-07 08:17 | 43.54209 | 7.15582 | 2116 ft | 175 kts | 354° |
| 2026-05-07 08:17 | 43.55418 | 7.15444 | 2009 ft | 175 kts | 353° |
| 2026-05-07 08:18 | 43.56628 | 7.15310 | 1997 ft | 174 kts | 353° |
| 2026-05-07 08:18 | 43.57833 | 7.15183 | 1996 ft | 173 kts | 354° |
| 2026-05-07 08:18 | 43.59030 | 7.15050 | 1986 ft | 172 kts | 352° |
| 2026-05-07 08:18 | 43.60222 | 7.14917 | 1781 ft | 171 kts | 353° |
| 2026-05-07 08:19 | 43.61384 | 7.15333 | 1570 ft | 176 kts | 28° |
| 2026-05-07 08:19 | 43.62319 | 7.16332 | 1268 ft | 168 kts | 59° |
| 2026-05-07 08:19 | 43.62967 | 7.17615 | 911 ft | 162 kts | 43° |
| 2026-05-07 08:19 | 43.63916 | 7.18580 | 485 ft | 174 kts | 40° |
| 2026-05-07 08:20 | 43.64744 | 7.19785 | 240 ft | 170 kts | 54° |
| 2026-05-07 08:20 | 43.65625 | 7.21022 | 678 ft | 196 kts | 46° |
| 2026-05-07 08:20 | 43.66650 | 7.22412 | 1893 ft | 211 kts | 47° |
| 2026-05-07 08:20 | 43.67686 | 7.23868 | 2722 ft | 218 kts | 46° |
| 2026-05-07 08:21 | 43.68573 | 7.25639 | 3184 ft | 233 kts | 70° |
| 2026-05-07 08:21 | 43.68717 | 7.27908 | 3656 ft | 240 kts | 101° |
| 2026-05-07 08:21 | 43.68036 | 7.29946 | 3945 ft | 233 kts | 130° |
| 2026-05-07 08:21 | 43.66728 | 7.31208 | 4004 ft | 232 kts | 161° |
| 2026-05-07 08:22 | 43.65171 | 7.31713 | 3995 ft | 225 kts | 172° |
| 2026-05-07 08:22 | 43.63688 | 7.32015 | 3997 ft | 214 kts | 173° |
| 2026-05-07 08:22 | 43.62224 | 7.32285 | 3874 ft | 211 kts | 173° |
| 2026-05-07 08:22 | 43.60799 | 7.32172 | 3669 ft | 202 kts | 197° |
| 2026-05-07 08:23 | 43.59638 | 7.31197 | 3491 ft | 193 kts | 220° |
| 2026-05-07 08:23 | 43.58662 | 7.29967 | 3282 ft | 186 kts | 225° |
| 2026-05-07 08:23 | 43.57727 | 7.28764 | 3020 ft | 182 kts | 225° |
| 2026-05-07 08:23 | 43.56798 | 7.27564 | 2697 ft | 184 kts | 225° |
| 2026-05-07 08:24 | 43.55863 | 7.26350 | 2371 ft | 184 kts | 225° |
| 2026-05-07 08:24 | 43.54949 | 7.25174 | 2219 ft | 175 kts | 225° |
| 2026-05-07 08:24 | 43.54084 | 7.24052 | 2064 ft | 167 kts | 225° |
| 2026-05-07 08:24 | 43.53254 | 7.22960 | 2003 ft | 165 kts | 225° |
| 2026-05-07 08:25 | 43.52557 | 7.21727 | 1984 ft | 161 kts | 251° |
| 2026-05-07 08:25 | 43.52587 | 7.20299 | 2000 ft | 152 kts | 294° |
| 2026-05-07 08:25 | 43.53191 | 7.19114 | 1995 ft | 151 kts | 311° |
| 2026-05-07 08:25 | 43.53921 | 7.18078 | 1948 ft | 149 kts | 314° |
| 2026-05-07 08:26 | 43.55397 | 7.16082 | 1522 ft | 150 kts | 314° |
| 2026-05-07 08:26 | 43.56297 | 7.15361 | 1511 ft | 153 kts | 345° |
| 2026-05-07 08:26 | 43.57354 | 7.15220 | 1343 ft | 152 kts | 357° |
| 2026-05-07 08:27 | 43.58412 | 7.15242 | 1109 ft | 152 kts | 359° |
| 2026-05-07 08:27 | 43.59533 | 7.15285 | 936 ft | 165 kts | 359° |
| 2026-05-07 08:27 | 43.60638 | 7.15319 | 800 ft | 150 kts | 0° |
| 2026-05-07 08:27 | 43.61563 | 7.15673 | 784 ft | 134 kts | 31° |
| 2026-05-07 08:28 | 43.62326 | 7.16349 | 791 ft | 129 kts | 44° |
| 2026-05-07 08:28 | 43.62886 | 7.17310 | 700 ft | 128 kts | 55° |
| 2026-05-07 08:28 | 43.63499 | 7.18192 | 550 ft | 128 kts | 42° |
| 2026-05-07 08:28 | 43.64161 | 7.18996 | 372 ft | 127 kts | 47° |
| 2026-05-07 08:29 | 43.64789 | 7.19857 | 220 ft | 129 kts | 49° |
| 2026-05-07 08:29 | 43.65417 | 7.20729 | 42 ft | 126 kts | 47° |
| 2026-05-07 08:29 | 43.65952 | 7.21464 | 27 ft | 78 kts | 45° |
| 2026-05-07 08:29 | 43.66167 | 7.21761 | 28 ft | 18 kts | 45° |
| 2026-05-07 08:30 | 43.66276 | 7.21903 | 28 ft | 25 kts | 39° |
| 2026-05-07 08:30 | 43.66433 | 7.22020 | 28 ft | 27 kts | 19° |
| 2026-05-07 08:30 | 43.66560 | 7.22014 | 27 ft | 16 kts | 318° |
| 2026-05-07 08:30 | 43.66639 | 7.21895 | 27 ft | 15 kts | 296° |
| 2026-05-07 08:31 | 43.66592 | 7.21782 | 27 ft | 16 kts | 226° |
| 2026-05-07 08:31 | 43.66507 | 7.21664 | 27 ft | 19 kts | 224° |
| 2026-05-07 08:31 | 43.66409 | 7.21530 | 27 ft | 21 kts | 224° |
| 2026-05-07 08:31 | 43.66345 | 7.21367 | 27 ft | 17 kts | 262° |
| 2026-05-07 08:32 | 43.66336 | 7.21258 | 27 ft | 11 kts | 272° |
| 2026-05-07 08:32 | 43.66391 | 7.21212 | 27 ft | 10 kts | 349° |
| 2026-05-07 08:32 | 43.66407 | 7.21208 | 27 ft | 0 kts | 350° |